Aviation Digital Data Service (ADDS)

Output produced by METARs form (1543 UTC 20 May 2018)
found at http://aviationweather.gov/adds/metars/
 
KDET 201405Z 2014/2112 35008KT P6SM OVC020 
     FM201600 03008KT P6SM BKN025 
     FM201900 06007KT P6SM BKN030 
     FM210300 06005KT P6SM SCT040 BKN080 OVC150